Time;durP1;ratioP1;P1;durP2;ratioP2;P2;SDS_P1;SDS_P2;PMS_P1;PMS_P2;Temp;Humidity;BMP_temperature;BMP_pressure;BME280_temperature;BME280_humidity;BME280_pressure;Samples;Min_cycle;Max_cycle;Signal;HPM_P1;HPM_P2
2022/04/02 00:00:45;;;;;;;8.07;3.63;;;0.90;99.90;;;;;;4998293;28;20450;-72
2022/04/02 00:03:11;;;;;;;9.57;3.63;;;0.80;99.90;;;;;;4997659;28;20054;-71
2022/04/02 00:05:36;;;;;;;6.95;3.72;;;0.80;99.90;;;;;;4997727;28;20050;-73
2022/04/02 00:08:03;;;;;;;7.80;3.92;;;0.70;99.90;;;;;;4997641;28;20050;-71
2022/04/02 00:10:28;;;;;;;6.68;3.90;;;0.70;99.90;;;;;;4997503;28;20054;-70
2022/04/02 00:12:55;;;;;;;7.78;4.28;;;0.70;99.90;;;;;;4980003;28;20130;-71
2022/04/02 00:15:22;;;;;;;6.85;4.15;;;0.60;99.90;;;;;;4996465;28;20042;-71
2022/04/02 00:17:48;;;;;;;9.57;4.18;;;0.60;99.90;;;;;;4996467;28;20469;-72
2022/04/02 00:20:13;;;;;;;6.30;3.30;;;0.50;99.90;;;;;;4997565;28;20118;-70
2022/04/02 00:23:35;;;;;;;8.95;3.90;;;0.50;99.90;;;;;;4980157;28;20510;-72
2022/04/02 00:25:24;;;;;;;7.35;4.25;;;0.40;99.90;;;;;;4997232;28;20056;-71
2022/04/02 00:27:50;;;;;;;7.20;4.10;;;0.30;99.90;;;;;;4997358;28;20046;-71
2022/04/02 00:30:16;;;;;;;8.80;4.10;;;0.30;99.90;;;;;;4997228;28;20050;-70
2022/04/02 00:32:41;;;;;;;6.20;4.07;;;0.30;99.90;;;;;;4997110;28;20117;-71
2022/04/02 00:35:08;;;;;;;7.28;3.95;;;0.30;99.90;;;;;;4979759;28;20113;-71
2022/04/02 00:37:34;;;;;;;6.88;3.65;;;0.20;99.90;;;;;;4997366;28;20035;-71
2022/04/02 00:40:00;;;;;;;7.20;3.90;;;0.20;99.90;;;;;;4997145;28;20471;-71
2022/04/02 00:42:26;;;;;;;8.02;3.40;;;0.20;99.90;;;;;;4996842;28;20060;-71
2022/04/02 00:44:52;;;;;;;9.05;3.85;;;0.20;99.90;;;;;;4996582;28;20042;-72
2022/04/02 00:47:17;;;;;;;8.38;3.92;;;0.20;99.90;;;;;;4979235;28;20154;-73
2022/04/02 00:49:43;;;;;;;8.15;3.85;;;0.20;99.90;;;;;;4996874;28;20042;-72
2022/04/02 00:52:09;;;;;;;7.82;4.38;;;0.10;99.90;;;;;;4996747;28;20374;-72
2022/04/02 00:54:34;;;;;;;8.35;4.13;;;0.10;99.90;;;;;;4996515;28;20081;-72
2022/04/02 00:57:01;;;;;;;6.25;3.83;;;0.10;99.90;;;;;;4996486;28;20057;-70
2022/04/02 00:59:26;;;;;;;7.57;4.03;;;0.00;99.90;;;;;;4996568;28;20046;-72
2022/04/02 01:01:52;;;;;;;6.97;4.13;;;0.00;99.90;;;;;;4979610;28;20050;-72
2022/04/02 01:04:18;;;;;;;6.53;3.53;;;0.00;99.90;;;;;;4996578;28;20474;-71
2022/04/02 01:06:45;;;;;;;7.88;3.97;;;0.30;99.90;;;;;;4996759;28;20118;-72
2022/04/02 01:09:11;;;;;;;7.60;3.63;;;-0.10;99.90;;;;;;4979062;28;20109;-70
2022/04/02 01:11:41;;;;;;;6.47;3.78;;;-0.10;99.90;;;;;;4996531;28;20054;-71
2022/04/02 01:14:07;;;;;;;6.75;3.80;;;-0.10;99.90;;;;;;4979483;28;20060;-71
2022/04/02 01:16:33;;;;;;;8.35;4.07;;;-0.10;99.90;;;;;;4995775;28;20042;-72
2022/04/02 01:19:00;;;;;;;7.68;3.92;;;-0.20;99.90;;;;;;4996287;28;20054;-72
2022/04/02 01:21:30;;;;;;;8.23;3.95;;;-0.10;99.90;;;;;;4996263;28;20398;-72
2022/04/02 01:23:56;;;;;;;10.20;4.25;;;-0.10;99.90;;;;;;4996024;28;20051;-71
2022/04/02 01:26:22;;;;;;;8.15;4.32;;;-0.20;99.90;;;;;;4996498;28;20082;-73
2022/04/02 01:28:57;;;;;;;7.40;4.18;;;-0.10;99.90;;;;;;4996024;28;20093;-72
2022/04/02 01:31:24;;;;;;;7.25;3.90;;;-0.10;99.90;;;;;;4996437;28;20053;-71
2022/04/02 01:33:51;;;;;;;6.57;3.40;;;-0.10;99.90;;;;;;4995953;28;20042;-71
2022/04/02 01:36:17;;;;;;;8.18;4.50;;;-0.10;99.90;;;;;;4995896;28;20076;-71
2022/04/02 01:38:43;;;;;;;10.77;4.22;;;-0.20;99.90;;;;;;4995940;28;20050;-71
2022/04/02 01:41:09;;;;;;;9.63;3.97;;;-0.20;99.90;;;;;;4995903;28;20046;-71
2022/04/02 01:43:34;;;;;;;12.60;4.43;;;-0.20;99.90;;;;;;4996130;28;20122;-71
2022/04/02 01:46:01;;;;;;;9.55;4.40;;;-0.30;99.90;;;;;;4995115;28;20042;-70
2022/04/02 01:48:27;;;;;;;7.00;3.63;;;-0.20;99.90;;;;;;4995821;28;20097;-72
2022/04/02 01:50:53;;;;;;;9.43;3.97;;;0.40;99.90;;;;;;4977299;28;20094;-71
2022/04/02 01:53:19;;;;;;;6.00;3.88;;;0.40;99.90;;;;;;4995640;28;20073;-71
2022/04/02 01:55:45;;;;;;;5.50;3.50;;;-0.30;99.90;;;;;;4978727;28;20189;-70
2022/04/02 01:58:11;;;;;;;6.25;3.67;;;-0.30;99.90;;;;;;4977966;28;20129;-72
2022/04/02 02:00:37;;;;;;;7.68;3.95;;;-0.30;99.90;;;;;;4995730;28;20054;-71
2022/04/02 02:03:02;;;;;;;6.38;3.97;;;-0.30;99.90;;;;;;4995699;28;20043;-72
2022/04/02 02:05:28;;;;;;;6.38;3.70;;;-0.30;99.90;;;;;;4978240;28;20122;-71
2022/04/02 02:07:53;;;;;;;7.43;4.18;;;-0.40;99.90;;;;;;4995388;28;20046;-72
2022/04/02 02:10:20;;;;;;;8.48;3.60;;;-0.40;99.90;;;;;;4995576;28;20050;-72
2022/04/02 02:12:46;;;;;;;7.88;4.50;;;-0.40;99.90;;;;;;4995473;28;20061;-73
2022/04/02 02:15:18;;;;;;;8.05;3.70;;;-0.40;99.90;;;;;;4995101;28;20122;-72
2022/04/02 02:17:47;;;;;;;15.20;4.07;;;-0.50;99.90;;;;;;4994552;28;20050;-73
2022/04/02 02:20:14;;;;;;;6.13;3.90;;;-0.50;99.90;;;;;;4978360;28;20054;-70
2022/04/02 02:22:41;;;;;;;6.18;3.47;;;-0.50;99.90;;;;;;4994929;28;20054;-72
2022/04/02 02:25:08;;;;;;;6.65;3.78;;;-0.50;99.90;;;;;;4978459;28;20061;-72
2022/04/02 02:27:34;;;;;;;12.35;4.00;;;-0.40;99.90;;;;;;4995298;28;20101;-70
2022/04/02 02:30:02;;;;;;;10.05;3.88;;;-0.40;99.90;;;;;;4992754;28;20446;-72
2022/04/02 02:32:28;;;;;;;6.00;3.45;;;-0.40;99.90;;;;;;4995404;28;20046;-71
2022/04/02 02:37:39;;;;;;;9.57;3.95;;;-0.40;99.90;;;;;;4995823;28;20367;-72
2022/04/02 02:40:05;;;;;;;6.35;3.70;;;-0.20;99.90;;;;;;4995501;28;20367;-71
2022/04/02 02:42:31;;;;;;;7.28;3.72;;;-0.40;99.90;;;;;;4995507;28;20061;-71
2022/04/02 02:44:57;;;;;;;11.40;4.10;;;-0.40;99.90;;;;;;4994834;28;20093;-69
2022/04/02 02:47:23;;;;;;;7.18;3.85;;;-0.40;99.90;;;;;;4995120;28;20050;-70
2022/04/02 02:49:49;;;;;;;8.23;3.88;;;-0.40;99.90;;;;;;4995705;28;20085;-71
2022/04/02 02:52:14;;;;;;;10.88;4.10;;;-0.40;99.90;;;;;;4995456;28;20042;-72
2022/04/02 02:54:40;;;;;;;8.20;3.65;;;-0.40;99.90;;;;;;4995635;28;20101;-72
2022/04/02 02:57:06;;;;;;;6.20;3.53;;;-0.40;99.90;;;;;;4977883;28;20058;-72
2022/04/02 02:59:33;;;;;;;10.27;4.15;;;-0.40;99.90;;;;;;4995102;28;20049;-72
2022/04/02 03:01:58;;;;;;;6.22;3.70;;;-0.40;99.90;;;;;;4995360;28;20359;-71
2022/04/02 03:04:24;;;;;;;6.90;4.00;;;-0.40;99.90;;;;;;4994985;28;20057;-72
2022/04/02 03:06:49;;;;;;;7.40;3.83;;;-0.40;99.90;;;;;;4995064;28;20050;-72
2022/04/02 03:09:15;;;;;;;7.13;3.88;;;-0.40;99.90;;;;;;4979251;28;20053;-71
2022/04/02 03:11:41;;;;;;;8.20;3.70;;;-0.40;99.90;;;;;;4981690;28;20047;-72
2022/04/02 03:14:07;;;;;;;6.82;3.25;;;-0.40;99.90;;;;;;4981521;28;20080;-70
2022/04/02 03:16:32;;;;;;;6.47;3.35;;;-0.30;99.90;;;;;;4997560;28;20648;-71
2022/04/02 03:19:00;;;;;;;6.47;3.72;;;-0.30;99.90;;;;;;4981502;28;20042;-72
2022/04/02 03:21:27;;;;;;;8.52;3.90;;;-0.30;99.90;;;;;;4981450;28;20458;-72
2022/04/02 03:23:53;;;;;;;7.57;3.80;;;-0.30;99.90;;;;;;4998583;28;20038;-70
2022/04/02 03:26:19;;;;;;;6.20;3.30;;;-0.30;99.90;;;;;;4998376;28;20065;-72
2022/04/02 03:28:46;;;;;;;5.85;3.25;;;-0.30;99.90;;;;;;4996236;28;20047;-73
2022/04/02 03:31:12;;;;;;;5.80;3.53;;;-0.30;99.90;;;;;;4997868;28;20058;-71
2022/04/02 03:33:37;;;;;;;10.27;3.35;;;-0.30;99.90;;;;;;4998281;28;20038;-70
2022/04/02 03:36:03;;;;;;;6.18;3.35;;;-0.30;99.90;;;;;;4998468;28;20442;-70
2022/04/02 03:38:29;;;;;;;7.68;3.30;;;-0.30;99.90;;;;;;4998417;28;20057;-71
2022/04/02 03:40:56;;;;;;;6.68;3.70;;;-0.30;99.90;;;;;;4998139;28;20121;-72
2022/04/02 03:43:22;;;;;;;8.23;4.10;;;-0.30;99.90;;;;;;4980790;28;20078;-72
2022/04/02 03:45:47;;;;;;;6.93;3.38;;;-0.30;99.90;;;;;;4980503;28;20089;-71
2022/04/02 03:48:13;;;;;;;8.45;3.47;;;-0.40;99.90;;;;;;4981236;28;20064;-70
2022/04/02 03:50:38;;;;;;;7.75;3.92;;;-0.30;99.90;;;;;;4998196;28;20057;-71
2022/04/02 03:53:04;;;;;;;8.90;3.35;;;-0.20;99.90;;;;;;4997421;28;20065;-70
2022/04/02 03:55:30;;;;;;;6.90;3.42;;;-0.30;99.90;;;;;;4980627;28;20054;-71
2022/04/02 03:57:56;;;;;;;7.53;4.03;;;-0.30;99.90;;;;;;4997660;28;20543;-71
2022/04/02 04:00:21;;;;;;;10.57;3.80;;;-0.40;99.90;;;;;;4997623;28;20135;-71
2022/04/02 04:02:47;;;;;;;7.25;3.40;;;-0.40;99.90;;;;;;4997628;28;20356;-73
2022/04/02 04:05:13;;;;;;;5.97;3.65;;;-0.40;99.90;;;;;;4997784;28;20054;-72
2022/04/02 04:07:38;;;;;;;7.60;4.03;;;-0.40;99.90;;;;;;4997765;28;20395;-72
2022/04/02 04:10:05;;;;;;;7.72;3.50;;;-0.40;99.90;;;;;;4997746;28;20046;-70
2022/04/02 04:12:31;;;;;;;11.45;3.53;;;-0.40;99.90;;;;;;4997456;28;20129;-72
2022/04/02 04:14:57;;;;;;;9.18;4.00;;;-0.40;99.90;;;;;;4996795;28;20525;-72
2022/04/02 04:17:23;;;;;;;10.50;3.50;;;-0.40;99.90;;;;;;4997685;28;20363;-70
2022/04/02 04:19:50;;;;;;;9.18;3.58;;;-0.40;99.90;;;;;;4997208;28;20038;-70
2022/04/02 04:22:17;;;;;;;10.05;3.53;;;-0.40;99.90;;;;;;4997555;28;20097;-72
2022/04/02 04:24:43;;;;;;;8.10;3.47;;;-0.40;99.90;;;;;;4997500;28;20046;-70
2022/04/02 04:27:08;;;;;;;10.48;3.58;;;-0.30;99.90;;;;;;4997535;28;20051;-73
2022/04/02 04:29:35;;;;;;;11.77;3.47;;;-0.30;99.90;;;;;;4997237;28;20122;-72
2022/04/02 04:32:00;;;;;;;7.72;3.33;;;-0.30;99.90;;;;;;4997036;28;20042;-70
2022/04/02 04:34:26;;;;;;;8.60;3.00;;;-0.30;99.90;;;;;;4996939;28;20058;-71
2022/04/02 04:36:51;;;;;;;7.25;3.38;;;-0.30;99.90;;;;;;4997146;28;20050;-73
2022/04/02 04:39:17;;;;;;;11.05;3.75;;;-0.30;99.90;;;;;;4997191;28;20370;-71
2022/04/02 04:41:43;;;;;;;9.35;3.60;;;-0.30;99.90;;;;;;4996993;28;20050;-70
2022/04/02 04:44:08;;;;;;;7.65;3.63;;;-0.30;99.90;;;;;;4996297;28;20423;-71
2022/04/02 04:46:34;;;;;;;9.52;3.70;;;-0.30;99.90;;;;;;4996953;28;20061;-72
2022/04/02 04:48:59;;;;;;;10.65;3.58;;;-0.30;99.90;;;;;;4997230;28;20442;-72
2022/04/02 04:51:25;;;;;;;10.77;3.35;;;-0.30;99.90;;;;;;4996732;28;20054;-71
2022/04/02 04:53:51;;;;;;;7.65;3.30;;;0.30;99.90;;;;;;4979701;28;20050;-72
2022/04/02 04:56:16;;;;;;;5.75;3.40;;;-0.30;99.90;;;;;;4996794;28;20501;-72
2022/04/02 04:58:42;;;;;;;6.90;3.10;;;-0.20;99.90;;;;;;4996594;28;20426;-71
2022/04/02 05:01:11;;;;;;;6.10;3.63;;;-0.30;99.90;;;;;;4979541;28;20081;-71
2022/04/02 05:03:37;;;;;;;8.70;3.83;;;-0.20;99.90;;;;;;4979682;28;20077;-72
2022/04/02 05:06:03;;;;;;;10.38;3.42;;;-0.20;99.90;;;;;;4996570;28;20050;-72
2022/04/02 05:08:31;;;;;;;6.18;3.60;;;-0.10;99.90;;;;;;4993696;28;20061;-72
2022/04/02 05:10:57;;;;;;;7.38;3.78;;;-0.10;99.90;;;;;;4996290;28;20057;-72
2022/04/02 05:13:23;;;;;;;9.07;3.78;;;0.00;99.90;;;;;;4994557;28;20046;-71
2022/04/02 05:15:48;;;;;;;10.57;3.45;;;0.10;99.90;;;;;;5002279;28;20052;-72
2022/04/02 05:18:14;;;;;;;6.80;3.20;;;0.30;99.90;;;;;;5003917;28;20050;-71
2022/04/02 05:20:41;;;;;;;12.60;3.80;;;0.30;99.90;;;;;;5003646;28;20116;-70
2022/04/02 05:23:07;;;;;;;7.85;3.53;;;0.40;99.90;;;;;;4978726;28;20074;-72
2022/04/02 05:25:34;;;;;;;8.77;3.85;;;0.40;99.90;;;;;;4981521;28;20045;-71
2022/04/02 05:28:04;;;;;;;8.25;3.58;;;0.40;99.90;;;;;;5010238;28;20116;-73
2022/04/02 05:30:31;;;;;;;8.65;3.47;;;0.50;99.90;;;;;;5015508;28;20037;-71
2022/04/02 05:32:56;;;;;;;7.70;3.50;;;0.60;99.90;;;;;;5014767;28;20045;-73
2022/04/02 05:35:25;;;;;;;7.68;3.90;;;0.70;99.90;;;;;;4998211;28;20545;-72
2022/04/02 05:37:50;;;;;;;9.93;3.83;;;0.80;99.90;;;;;;5015753;28;20100;-70
2022/04/02 05:40:16;;;;;;;7.25;3.60;;;0.80;99.90;;;;;;5003279;28;20050;-71
2022/04/02 05:42:42;;;;;;;9.63;4.20;;;0.80;99.90;;;;;;4995354;28;20338;-72
2022/04/02 05:45:09;;;;;;;7.57;3.67;;;0.90;99.90;;;;;;4995758;28;20050;-72
2022/04/02 05:47:49;;;;;;;7.68;4.10;;;1.00;99.90;;;;;;4978188;28;20140;-72
2022/04/02 05:50:16;;;;;;;11.52;3.92;;;1.10;99.90;;;;;;4996106;28;20355;-71
2022/04/02 05:52:42;;;;;;;9.43;4.28;;;1.20;99.90;;;;;;4978280;28;20056;-71
2022/04/02 05:55:10;;;;;;;7.25;4.18;;;1.30;99.90;;;;;;4995713;28;20045;-73
2022/04/02 05:57:37;;;;;;;8.43;4.53;;;1.40;99.90;;;;;;4978678;28;20054;-71
2022/04/02 06:00:06;;;;;;;8.73;3.83;;;1.50;99.90;;;;;;4995536;28;20038;-71
2022/04/02 06:02:31;;;;;;;8.75;4.00;;;1.50;99.90;;;;;;4995645;28;20093;-71
2022/04/02 06:04:57;;;;;;;10.55;4.30;;;1.60;99.90;;;;;;4995578;28;20136;-71
2022/04/02 06:07:23;;;;;;;6.78;3.78;;;1.70;99.90;;;;;;4978078;28;20058;-70
2022/04/02 06:09:48;;;;;;;7.32;4.10;;;1.80;99.90;;;;;;4995943;28;20038;-72
2022/04/02 06:12:14;;;;;;;10.20;4.00;;;1.90;99.90;;;;;;4995082;28;20174;-71
2022/04/02 06:14:39;;;;;;;7.75;3.63;;;2.00;99.90;;;;;;4995665;28;20050;-70
2022/04/02 06:17:05;;;;;;;7.72;3.70;;;2.20;99.90;;;;;;4995626;28;20050;-72
2022/04/02 06:19:30;;;;;;;7.30;3.95;;;2.30;99.90;;;;;;4995365;28;20047;-72
2022/04/02 06:21:56;;;;;;;7.60;3.90;;;3.00;99.90;;;;;;4995289;28;20137;-72
2022/04/02 06:24:21;;;;;;;7.25;3.55;;;2.80;99.90;;;;;;4995259;28;20093;-71
2022/04/02 06:26:47;;;;;;;7.75;3.90;;;4.20;99.90;;;;;;4996611;28;20042;-72
2022/04/02 06:29:12;;;;;;;12.38;4.18;;;4.00;99.90;;;;;;4995495;28;20420;-72
2022/04/02 06:31:39;;;;;;;5.13;3.20;;;4.70;99.90;;;;;;4977210;28;20061;-71
2022/04/02 06:34:05;;;;;;;9.93;3.33;;;5.30;99.90;;;;;;4994798;28;20133;-72
2022/04/02 06:36:31;;;;;;;10.13;3.45;;;5.50;99.90;;;;;;4995045;28;20090;-71
2022/04/02 06:38:56;;;;;;;8.35;2.92;;;5.50;99.90;;;;;;4978473;28;20473;-70
2022/04/02 06:41:23;;;;;;;8.23;3.38;;;5.20;99.90;;;;;;4995148;28;20454;-71
2022/04/02 06:43:48;;;;;;;9.85;2.90;;;4.80;99.90;;;;;;4999612;28;20073;-72
2022/04/02 06:46:14;;;;;;;8.10;3.08;;;4.50;99.90;;;;;;5007002;28;20529;-71
2022/04/02 06:48:39;;;;;;;6.00;3.00;;;4.40;99.90;;;;;;4994485;28;20057;-71
2022/04/02 06:51:09;;;;;;;6.40;2.97;;;4.40;99.90;;;;;;4998600;28;20089;-71
2022/04/02 06:53:35;;;;;;;8.38;3.83;;;4.30;99.90;;;;;;4995511;28;20050;-72
2022/04/02 06:56:00;;;;;;;5.57;2.67;;;4.30;99.90;;;;;;4996906;28;20046;-70
2022/04/02 06:58:33;;;;;;;6.90;2.80;;;4.20;99.90;;;;;;4999106;28;20042;-71
2022/04/02 07:00:59;;;;;;;9.57;2.92;;;4.20;99.90;;;;;;5004781;28;20049;-71
2022/04/02 07:03:25;;;;;;;9.48;3.42;;;4.20;99.90;;;;;;5001680;28;20397;-73
2022/04/02 07:05:50;;;;;;;8.13;2.58;;;4.20;99.90;;;;;;5005972;28;20042;-70
2022/04/02 07:08:16;;;;;;;5.82;2.92;;;4.10;99.90;;;;;;4986862;28;20377;-73
2022/04/02 07:10:42;;;;;;;5.97;2.60;;;4.10;99.90;;;;;;4997988;28;20514;-71
2022/04/02 07:13:07;;;;;;;7.85;2.85;;;4.20;99.90;;;;;;4981622;28;20061;-71
2022/04/02 07:15:33;;;;;;;7.47;3.40;;;4.20;99.90;;;;;;4998225;28;20046;-71
2022/04/02 07:18:06;;;;;;;5.85;2.70;;;4.20;99.90;;;;;;4980521;28;20450;-71
2022/04/02 07:20:34;;;;;;;4.85;3.00;;;4.20;99.90;;;;;;4995954;28;20092;-72
2022/04/02 07:23:01;;;;;;;9.73;2.72;;;4.30;99.90;;;;;;4997822;28;20138;-72
2022/04/02 07:25:29;;;;;;;6.00;2.80;;;4.30;99.90;;;;;;4997329;28;20046;-73
2022/04/02 07:27:56;;;;;;;5.88;3.00;;;4.40;99.90;;;;;;4998231;28;20129;-74
2022/04/02 07:30:22;;;;;;;5.50;2.60;;;4.50;99.90;;;;;;4998070;28;20046;-71
2022/04/02 07:32:48;;;;;;;6.18;3.00;;;4.50;99.90;;;;;;4980360;28;20056;-73
2022/04/02 07:35:14;;;;;;;7.40;2.40;;;4.60;99.90;;;;;;4998717;28;20458;-71
2022/04/02 07:38:02;;;;;;;5.63;2.35;;;4.50;99.90;;;;;;4980826;28;20065;-73
2022/04/02 07:40:40;;;;;;;7.93;2.25;;;4.40;99.90;;;;;;4978935;28;20391;-70
2022/04/02 07:43:20;;;;;;;6.38;2.30;;;4.10;99.90;;;;;;4982042;28;20057;-72
2022/04/02 07:45:51;;;;;;;6.68;2.38;;;4.10;99.90;;;;;;4980951;28;20053;-72
2022/04/02 07:48:18;;;;;;;5.00;2.47;;;3.90;99.90;;;;;;4960640;28;20059;-71
2022/04/02 07:50:45;;;;;;;5.50;2.17;;;3.80;99.90;;;;;;4979082;28;20050;-69
2022/04/02 07:53:22;;;;;;;6.88;2.60;;;3.80;99.90;;;;;;4994948;28;20145;-71
2022/04/02 07:55:56;;;;;;;6.85;2.55;;;3.80;99.90;;;;;;4996689;28;20054;-72
2022/04/02 07:58:28;;;;;;;5.68;2.85;;;4.00;99.90;;;;;;4997348;28;20085;-71
2022/04/02 08:00:56;;;;;;;6.72;2.13;;;3.90;99.90;;;;;;4983959;28;20061;-71
2022/04/02 08:03:23;;;;;;;3.92;2.10;;;4.00;99.90;;;;;;4980020;28;20105;-74
2022/04/02 08:05:49;;;;;;;4.15;2.45;;;4.00;99.90;;;;;;4997753;28;20050;-72
2022/04/02 08:08:15;;;;;;;5.25;2.40;;;4.10;99.90;;;;;;4979880;28;20089;-72
2022/04/02 08:10:46;;;;;;;5.60;2.10;;;4.20;99.90;;;;;;4979803;28;20125;-73
2022/04/02 08:13:14;;;;;;;6.30;2.25;;;4.30;99.90;;;;;;4997073;28;20042;-71
2022/04/02 08:15:40;;;;;;;8.32;2.30;;;4.40;99.90;;;;;;4997801;28;20362;-72
2022/04/02 08:18:07;;;;;;;6.55;2.67;;;4.50;99.90;;;;;;4997021;28;20073;-70
2022/04/02 08:20:33;;;;;;;7.53;2.40;;;4.50;99.90;;;;;;4996234;28;20042;-70
2022/04/02 08:23:01;;;;;;;3.78;2.00;;;4.60;99.90;;;;;;4996314;28;20058;-72
2022/04/02 08:25:27;;;;;;;7.90;2.30;;;4.60;99.90;;;;;;4979374;28;20114;-71
2022/04/02 08:28:19;;;;;;;5.45;2.08;;;4.50;99.90;;;;;;4979691;28;20415;-73
2022/04/02 08:30:53;;;;;;;4.15;2.40;;;4.50;99.90;;;;;;4996976;28;20042;-73
2022/04/02 08:34:01;;;;;;;3.95;2.20;;;4.60;99.90;;;;;;4996101;28;20096;-72
2022/04/02 08:36:35;;;;;;;5.07;2.53;;;4.80;99.90;;;;;;4968055;28;20108;-71
2022/04/02 08:39:08;;;;;;;7.13;2.17;;;4.70;99.90;;;;;;4996497;28;20042;-72
2022/04/02 08:42:13;;;;;;;5.10;2.20;;;4.70;99.90;;;;;;4996840;28;20050;-73
2022/04/02 08:45:03;;;;;;;4.30;2.20;;;4.80;99.90;;;;;;4996647;28;20055;-73
2022/04/02 08:47:29;;;;;;;6.88;2.58;;;4.80;99.90;;;;;;4979664;28;20061;-72
2022/04/02 08:50:13;;;;;;;5.72;2.30;;;4.80;99.90;;;;;;4996845;28;20050;-71
2022/04/02 08:52:49;;;;;;;5.90;2.17;;;4.80;99.90;;;;;;4996959;28;20050;-72
2022/04/02 08:55:16;;;;;;;5.40;2.30;;;4.80;99.90;;;;;;4979231;28;20039;-70
2022/04/02 08:57:42;;;;;;;6.25;2.10;;;4.80;99.90;;;;;;4995937;28;20081;-72
2022/04/02 09:00:10;;;;;;;9.35;2.00;;;4.70;99.90;;;;;;4995488;28;20418;-70
2022/04/02 09:03:07;;;;;;;5.13;2.10;;;4.60;99.90;;;;;;4982887;28;20106;-71
2022/04/02 09:06:07;;;;;;;6.25;1.85;;;4.70;99.90;;;;;;4978205;28;20051;-72
2022/04/02 09:09:06;;;;;;;7.78;1.85;;;4.80;99.90;;;;;;4960296;28;20051;-73
2022/04/02 09:11:59;;;;;;;4.13;1.80;;;4.70;99.90;;;;;;4977047;28;20077;-71
2022/04/02 09:15:02;;;;;;;4.93;1.77;;;4.70;99.90;;;;;;4990831;28;20123;-73
2022/04/02 09:17:53;;;;;;;3.92;1.90;;;4.60;99.90;;;;;;4996489;28;20054;-72
2022/04/02 09:20:24;;;;;;;7.03;2.25;;;4.60;99.90;;;;;;4986159;28;20361;-72
2022/04/02 09:23:11;;;;;;;6.88;1.88;;;4.60;99.90;;;;;;4961342;28;20125;-71
2022/04/02 09:25:57;;;;;;;5.30;1.80;;;4.70;99.90;;;;;;4978106;28;20046;-71
2022/04/02 09:28:42;;;;;;;7.85;1.95;;;4.70;99.90;;;;;;4976056;28;20138;-72
2022/04/02 09:31:26;;;;;;;4.25;1.80;;;4.80;99.90;;;;;;4964360;28;20043;-70
2022/04/02 09:34:32;;;;;;;6.55;2.00;;;4.80;99.90;;;;;;4995563;28;20050;-72
2022/04/02 09:37:14;;;;;;;6.72;2.10;;;4.90;99.90;;;;;;4994333;28;20050;-71
2022/04/02 09:39:48;;;;;;;5.28;2.33;;;5.00;99.90;;;;;;4991282;28;20088;-70
2022/04/02 09:42:43;;;;;;;5.50;1.77;;;4.90;99.90;;;;;;4995430;28;20078;-72
2022/04/02 09:45:31;;;;;;;3.85;1.80;;;5.00;99.90;;;;;;4983315;28;20061;-71
2022/04/02 09:48:16;;;;;;;4.18;1.92;;;5.20;99.90;;;;;;4995301;28;20383;-71
2022/04/02 09:50:44;;;;;;;4.72;1.90;;;5.40;99.90;;;;;;4973211;28;20066;-72
2022/04/02 09:53:19;;;;;;;5.95;2.17;;;5.70;99.90;;;;;;4996270;28;20050;-73
2022/04/02 09:56:09;;;;;;;3.67;1.90;;;5.90;99.90;;;;;;4979091;28;20042;-71
2022/04/02 09:58:50;;;;;;;5.05;1.80;;;6.20;99.90;;;;;;4976124;28;20047;-71
2022/04/02 10:01:59;;;;;;;4.72;1.50;;;6.10;99.90;;;;;;4975933;28;20050;-73
2022/04/02 10:04:36;;;;;;;2.42;1.40;;;6.20;99.90;;;;;;4950517;28;20121;-72
2022/04/02 10:07:04;;;;;;;2.90;1.50;;;6.00;99.90;;;;;;4976436;28;20046;-70
2022/04/02 10:09:40;;;;;;;5.50;1.35;;;5.70;99.90;;;;;;4958785;28;20059;-72
2022/04/02 10:12:09;;;;;;;4.50;1.70;;;5.50;99.90;;;;;;4978522;28;20198;-70
2022/04/02 10:14:38;;;;;;;5.60;1.52;;;5.40;99.90;;;;;;4994671;28;20050;-71
2022/04/02 10:17:06;;;;;;;3.53;1.73;;;5.20;99.90;;;;;;4995275;28;20057;-71
2022/04/02 10:19:41;;;;;;;3.53;1.90;;;5.50;99.90;;;;;;5001506;28;20104;-70
2022/04/02 10:22:09;;;;;;;4.50;1.73;;;5.50;99.90;;;;;;5002169;28;20057;-70
2022/04/02 10:24:40;;;;;;;4.88;1.95;;;5.80;99.90;;;;;;5002043;28;20041;-71
2022/04/02 10:27:10;;;;;;;6.95;2.38;;;5.90;99.90;;;;;;4985025;28;20557;-71
2022/04/02 10:29:54;;;;;;;4.68;2.03;;;5.80;99.90;;;;;;4985327;28;20054;-71
2022/04/02 10:32:38;;;;;;;3.92;1.70;;;5.90;99.90;;;;;;4987193;28;20046;-72
2022/04/02 10:35:08;;;;;;;4.38;1.63;;;6.00;99.90;;;;;;4992746;28;20030;-71
2022/04/02 10:37:43;;;;;;;3.38;1.77;;;6.10;99.90;;;;;;4998918;28;20054;-71
2022/04/02 10:40:11;;;;;;;3.95;1.85;;;6.30;99.90;;;;;;5001679;28;20089;-71
2022/04/02 10:42:42;;;;;;;6.15;2.03;;;6.50;99.90;;;;;;5001134;28;20057;-71
2022/04/02 10:45:13;;;;;;;3.83;1.92;;;6.60;99.90;;;;;;5001537;28;20053;-71
2022/04/02 10:47:42;;;;;;;5.20;1.85;;;6.40;99.90;;;;;;5001174;28;20130;-72
2022/04/02 10:50:09;;;;;;;5.45;1.75;;;6.10;99.90;;;;;;5001646;28;20086;-71
2022/04/02 10:52:35;;;;;;;6.05;2.22;;;5.90;99.90;;;;;;5001627;28;20076;-70
2022/04/02 10:55:02;;;;;;;5.75;1.80;;;5.70;99.90;;;;;;5001863;28;20386;-70
2022/04/02 10:57:29;;;;;;;4.00;1.88;;;5.40;99.90;;;;;;5001557;28;20038;-72
2022/04/02 11:00:00;;;;;;;3.70;1.73;;;5.30;99.90;;;;;;4997099;28;20400;-70
2022/04/02 11:02:41;;;;;;;5.95;1.88;;;5.20;99.90;;;;;;4953921;28;20051;-70
2022/04/02 11:05:11;;;;;;;4.93;2.13;;;5.10;99.90;;;;;;4982115;28;20051;-72
2022/04/02 11:07:45;;;;;;;5.45;1.92;;;5.20;99.90;;;;;;4982386;28;20172;-72
2022/04/02 11:10:18;;;;;;;5.72;2.47;;;5.20;99.90;;;;;;4982042;28;20081;-71
2022/04/02 11:12:46;;;;;;;4.05;2.00;;;5.40;99.90;;;;;;4964718;28;20126;-71
2022/04/02 11:15:11;;;;;;;7.95;2.00;;;5.50;99.90;;;;;;4982372;28;20050;-70
2022/04/02 11:17:42;;;;;;;6.78;2.10;;;5.60;99.90;;;;;;4965033;28;20065;-72
2022/04/02 11:20:15;;;;;;;6.90;2.60;;;5.50;99.90;;;;;;4981907;28;20439;-72
2022/04/02 11:22:59;;;;;;;3.45;1.90;;;5.50;99.90;;;;;;4965186;28;20086;-72
2022/04/02 11:25:29;;;;;;;5.35;2.25;;;5.70;99.90;;;;;;4982132;28;20094;-72
2022/04/02 11:27:58;;;;;;;4.90;2.00;;;5.70;99.90;;;;;;4964968;28;20101;-71
2022/04/02 11:30:29;;;;;;;4.82;1.65;;;5.90;99.90;;;;;;4978269;28;20039;-71
2022/04/02 11:33:04;;;;;;;3.85;1.40;;;6.20;99.90;;;;;;4978489;28;20126;-70
2022/04/02 11:35:35;;;;;;;4.88;1.67;;;6.30;99.90;;;;;;4987387;28;20035;-71
2022/04/02 11:38:14;;;;;;;4.63;1.60;;;6.30;99.90;;;;;;4994996;28;20049;-71
2022/04/02 11:40:50;;;;;;;7.50;1.45;;;6.30;99.90;;;;;;4963942;28;20476;-72
2022/04/02 11:43:17;;;;;;;4.63;1.83;;;6.30;99.90;;;;;;4959166;29;20043;-71
2022/04/02 11:45:46;;;;;;;22.08;11.50;;;6.40;99.90;;;;;;4959009;29;20043;-72
2022/04/02 11:48:14;;;;;;;7.13;2.53;;;6.60;99.90;;;;;;4971481;28;20124;-73
2022/04/02 11:50:45;;;;;;;6.00;2.28;;;6.70;99.90;;;;;;4978563;28;20082;-71
2022/04/02 11:53:14;;;;;;;5.80;2.85;;;6.80;99.90;;;;;;4978281;28;20134;-71
2022/04/02 11:55:41;;;;;;;11.18;3.95;;;6.90;99.90;;;;;;4975572;28;20370;-74
2022/04/02 11:58:09;;;;;;;11.15;4.55;;;6.50;99.90;;;;;;4977929;28;20062;-72
2022/04/02 12:00:37;;;;;;;6.82;3.00;;;6.20;99.90;;;;;;4928195;28;20051;-69
2022/04/02 12:03:06;;;;;;;3.30;1.77;;;6.20;99.90;;;;;;4978224;28;20344;-72
2022/04/02 12:05:42;;;;;;;4.43;1.70;;;6.00;99.90;;;;;;4960468;28;20046;-72
2022/04/02 12:08:09;;;;;;;6.00;2.10;;;6.00;99.90;;;;;;4977582;28;20062;-71
2022/04/02 12:10:44;;;;;;;9.63;4.57;;;6.00;99.90;;;;;;4961084;28;20054;-71
2022/04/02 12:13:10;;;;;;;7.55;5.20;;;6.30;99.90;;;;;;4977690;28;20149;-71
2022/04/02 12:15:36;;;;;;;6.28;1.70;;;6.50;99.90;;;;;;4973377;28;20080;-71
2022/04/02 12:18:07;;;;;;;4.32;1.70;;;6.70;99.00;;;;;;4967943;28;20086;-71
2022/04/02 12:20:35;;;;;;;3.85;1.58;;;6.90;99.90;;;;;;4977899;28;20050;-72
2022/04/02 12:23:18;;;;;;;7.13;1.42;;;7.10;98.30;;;;;;4965687;28;20535;-71
2022/04/02 12:25:53;;;;;;;3.10;1.60;;;7.00;95.60;;;;;;4961499;28;20065;-72
2022/04/02 12:28:20;;;;;;;4.53;1.58;;;7.00;96.30;;;;;;4960880;28;20047;-73
2022/04/02 12:30:48;;;;;;;6.55;1.35;;;6.90;93.80;;;;;;4977789;28;20166;-73
2022/04/02 12:33:25;;;;;;;2.60;1.48;;;7.00;93.40;;;;;;4960387;28;20126;-71
2022/04/02 12:36:05;;;;;;;3.97;1.63;;;7.20;93.60;;;;;;4976525;28;20058;-70
2022/04/02 12:38:34;;;;;;;4.50;1.70;;;7.10;93.00;;;;;;4961771;28;20057;-70
2022/04/02 12:41:01;;;;;;;3.30;1.45;;;7.00;92.80;;;;;;4960496;28;20563;-72
2022/04/02 12:43:29;;;;;;;3.78;1.70;;;7.20;94.90;;;;;;4944582;28;20101;-72
2022/04/02 12:45:55;;;;;;;3.88;1.65;;;7.40;96.30;;;;;;4977286;28;20035;-72
2022/04/02 12:48:21;;;;;;;5.95;1.92;;;7.60;96.40;;;;;;4971986;28;20140;-71
2022/04/02 12:50:59;;;;;;;3.15;1.52;;;7.90;96.50;;;;;;4979963;28;20061;-71
2022/04/02 12:53:40;;;;;;;7.50;2.28;;;7.60;95.40;;;;;;4980233;28;20344;-71
2022/04/02 12:56:20;;;;;;;5.65;1.77;;;7.50;94.60;;;;;;4996796;28;20112;-71
2022/04/02 12:58:48;;;;;;;3.78;1.80;;;7.20;95.90;;;;;;4997427;28;20077;-71
2022/04/02 13:01:26;;;;;;;5.57;1.60;;;7.00;95.50;;;;;;4992102;28;20054;-71
2022/04/02 13:04:08;;;;;;;2.95;1.52;;;6.70;95.00;;;;;;4995901;28;20069;-70
2022/04/02 13:06:35;;;;;;;3.58;1.55;;;6.70;94.40;;;;;;4978656;28;20081;-71
2022/04/02 13:09:05;;;;;;;3.33;1.83;;;6.50;94.70;;;;;;4995046;28;20042;-71